Eagle Lake, Minnesota
Current Conditions -  °F | °C
As of 12:15 PM on Monday 24 Nov 2014 (Local Time) from KACQ Reporting Station
Light Snow Light Snow  
Wind Chill: -17°   Ceiling: 1800
Heat Index: -7°   Visibility: 7mi
Dew Point: -11°   Wind: 25mph
Humidity: 74%   Direction: 290°WNW
Pressure: 29.52"   Gusts: 32mph
Location:  44.16°N, 93.88°W
Report Text: KACQ 241815Z AUTO 29022G28KT 7SM -SN BKN018 OVC031 M07/M11 A2952 RMK AO2
Loading
Personal Weather Stations






























Interactive Weather Map New forecast layout! Learn more

10-Day Weather Forecast

Advertisements
Track Severe Weather on mobile